sensor_id;sensor_type;location;lat;lon;timestamp;temperature;humidity
81630;DHT22;71039;49.500;10.418;2024-03-08T00:02:14;3.60;55.40
81630;DHT22;71039;49.500;10.418;2024-03-08T00:04:40;3.60;55.50
81630;DHT22;71039;49.500;10.418;2024-03-08T00:07:05;3.60;55.50
81630;DHT22;71039;49.500;10.418;2024-03-08T00:09:31;3.50;55.60
81630;DHT22;71039;49.500;10.418;2024-03-08T00:11:56;3.50;55.60
81630;DHT22;71039;49.500;10.418;2024-03-08T00:14:22;3.50;55.70
81630;DHT22;71039;49.500;10.418;2024-03-08T00:16:47;3.50;55.70
81630;DHT22;71039;49.500;10.418;2024-03-08T00:19:13;3.50;55.80
81630;DHT22;71039;49.500;10.418;2024-03-08T00:21:38;3.50;55.80
81630;DHT22;71039;49.500;10.418;2024-03-08T00:24:04;3.50;55.80
81630;DHT22;71039;49.500;10.418;2024-03-08T00:26:30;3.50;55.90
81630;DHT22;71039;49.500;10.418;2024-03-08T00:28:55;3.40;55.90
81630;DHT22;71039;49.500;10.418;2024-03-08T00:31:21;3.40;56.00
81630;DHT22;71039;49.500;10.418;2024-03-08T00:33:46;3.30;56.00
81630;DHT22;71039;49.500;10.418;2024-03-08T00:36:12;3.30;56.10
81630;DHT22;71039;49.500;10.418;2024-03-08T00:38:38;3.30;56.10
81630;DHT22;71039;49.500;10.418;2024-03-08T00:41:03;3.30;56.10
81630;DHT22;71039;49.500;10.418;2024-03-08T00:43:29;3.30;56.20
81630;DHT22;71039;49.500;10.418;2024-03-08T00:45:54;3.30;56.30
81630;DHT22;71039;49.500;10.418;2024-03-08T00:48:20;3.30;56.20
81630;DHT22;71039;49.500;10.418;2024-03-08T00:50:45;3.30;56.30
81630;DHT22;71039;49.500;10.418;2024-03-08T00:53:11;3.20;56.40
81630;DHT22;71039;49.500;10.418;2024-03-08T00:55:37;3.20;56.40
81630;DHT22;71039;49.500;10.418;2024-03-08T00:58:03;3.10;56.50
81630;DHT22;71039;49.500;10.418;2024-03-08T01:00:28;3.10;56.50
81630;DHT22;71039;49.500;10.418;2024-03-08T01:02:54;3.10;56.50
81630;DHT22;71039;49.500;10.418;2024-03-08T01:05:19;3.10;56.50
81630;DHT22;71039;49.500;10.418;2024-03-08T01:07:45;3.10;56.50
81630;DHT22;71039;49.500;10.418;2024-03-08T01:10:10;3.10;56.50
81630;DHT22;71039;49.500;10.418;2024-03-08T01:12:36;3.10;56.50
81630;DHT22;71039;49.500;10.418;2024-03-08T01:15:01;3.10;56.60
81630;DHT22;71039;49.500;10.418;2024-03-08T01:17:27;3.00;56.60
81630;DHT22;71039;49.500;10.418;2024-03-08T01:19:53;3.00;56.60
81630;DHT22;71039;49.500;10.418;2024-03-08T01:22:18;3.00;56.70
81630;DHT22;71039;49.500;10.418;2024-03-08T01:24:44;3.00;56.80
81630;DHT22;71039;49.500;10.418;2024-03-08T01:27:09;3.00;57.00
81630;DHT22;71039;49.500;10.418;2024-03-08T01:29:35;2.90;57.00
81630;DHT22;71039;49.500;10.418;2024-03-08T01:32:00;2.90;57.00
81630;DHT22;71039;49.500;10.418;2024-03-08T01:34:26;2.90;57.30
81630;DHT22;71039;49.500;10.418;2024-03-08T01:36:51;2.90;57.00
81630;DHT22;71039;49.500;10.418;2024-03-08T01:39:17;2.90;57.20
81630;DHT22;71039;49.500;10.418;2024-03-08T01:41:42;2.90;57.20
81630;DHT22;71039;49.500;10.418;2024-03-08T01:44:08;2.80;57.20
81630;DHT22;71039;49.500;10.418;2024-03-08T01:46:34;2.80;57.30
81630;DHT22;71039;49.500;10.418;2024-03-08T01:49:00;2.80;57.20
81630;DHT22;71039;49.500;10.418;2024-03-08T01:51:27;2.80;57.30
81630;DHT22;71039;49.500;10.418;2024-03-08T01:53:52;2.70;57.50
81630;DHT22;71039;49.500;10.418;2024-03-08T01:56:18;2.70;57.50
81630;DHT22;71039;49.500;10.418;2024-03-08T01:58:44;2.70;57.80
81630;DHT22;71039;49.500;10.418;2024-03-08T02:01:12;2.70;57.70
81630;DHT22;71039;49.500;10.418;2024-03-08T02:03:37;2.60;57.70
81630;DHT22;71039;49.500;10.418;2024-03-08T02:06:03;2.60;58.40
81630;DHT22;71039;49.500;10.418;2024-03-08T02:08:29;2.60;57.70
81630;DHT22;71039;49.500;10.418;2024-03-08T02:10:54;2.50;57.80
81630;DHT22;71039;49.500;10.418;2024-03-08T02:13:20;2.50;57.60
81630;DHT22;71039;49.500;10.418;2024-03-08T02:18:20;2.50;57.70
81630;DHT22;71039;49.500;10.418;2024-03-08T02:20:47;2.50;57.70
81630;DHT22;71039;49.500;10.418;2024-03-08T02:23:14;2.50;57.80
81630;DHT22;71039;49.500;10.418;2024-03-08T02:25:40;2.40;58.10
81630;DHT22;71039;49.500;10.418;2024-03-08T02:28:05;2.40;57.90
81630;DHT22;71039;49.500;10.418;2024-03-08T02:30:31;2.40;58.10
81630;DHT22;71039;49.500;10.418;2024-03-08T02:32:56;2.40;58.10
81630;DHT22;71039;49.500;10.418;2024-03-08T02:35:22;2.40;58.30
81630;DHT22;71039;49.500;10.418;2024-03-08T02:37:47;2.30;58.30
81630;DHT22;71039;49.500;10.418;2024-03-08T02:40:13;2.30;58.20
81630;DHT22;71039;49.500;10.418;2024-03-08T02:42:39;2.30;58.30
81630;DHT22;71039;49.500;10.418;2024-03-08T02:45:05;2.30;58.30
81630;DHT22;71039;49.500;10.418;2024-03-08T02:47:31;2.20;58.30
81630;DHT22;71039;49.500;10.418;2024-03-08T02:49:57;2.20;58.30
81630;DHT22;71039;49.500;10.418;2024-03-08T02:52:22;2.20;58.40
81630;DHT22;71039;49.500;10.418;2024-03-08T02:54:48;2.20;58.50
81630;DHT22;71039;49.500;10.418;2024-03-08T02:57:14;2.20;58.50
81630;DHT22;71039;49.500;10.418;2024-03-08T02:59:39;2.20;58.60
81630;DHT22;71039;49.500;10.418;2024-03-08T03:02:05;2.10;58.50
81630;DHT22;71039;49.500;10.418;2024-03-08T03:04:30;2.10;58.70
81630;DHT22;71039;49.500;10.418;2024-03-08T03:06:56;2.10;58.70
81630;DHT22;71039;49.500;10.418;2024-03-08T03:09:21;2.10;58.70
81630;DHT22;71039;49.500;10.418;2024-03-08T03:11:47;2.10;58.80
81630;DHT22;71039;49.500;10.418;2024-03-08T03:14:12;2.10;58.90
81630;DHT22;71039;49.500;10.418;2024-03-08T03:16:38;2.10;59.00
81630;DHT22;71039;49.500;10.418;2024-03-08T03:19:03;2.10;59.40
81630;DHT22;71039;49.500;10.418;2024-03-08T03:21:29;2.00;60.20
81630;DHT22;71039;49.500;10.418;2024-03-08T03:23:54;2.00;59.90
81630;DHT22;71039;49.500;10.418;2024-03-08T03:26:20;2.00;60.40
81630;DHT22;71039;49.500;10.418;2024-03-08T03:28:45;2.00;60.40
81630;DHT22;71039;49.500;10.418;2024-03-08T03:31:11;2.00;60.60
81630;DHT22;71039;49.500;10.418;2024-03-08T03:33:36;2.00;60.20
81630;DHT22;71039;49.500;10.418;2024-03-08T03:36:03;2.00;60.80
81630;DHT22;71039;49.500;10.418;2024-03-08T03:38:28;1.90;60.80
81630;DHT22;71039;49.500;10.418;2024-03-08T03:40:54;1.90;60.70
81630;DHT22;71039;49.500;10.418;2024-03-08T03:43:19;1.90;60.70
81630;DHT22;71039;49.500;10.418;2024-03-08T03:45:45;1.90;60.80
81630;DHT22;71039;49.500;10.418;2024-03-08T03:48:10;1.90;60.80
81630;DHT22;71039;49.500;10.418;2024-03-08T03:50:36;1.90;61.40
81630;DHT22;71039;49.500;10.418;2024-03-08T03:53:03;1.90;61.00
81630;DHT22;71039;49.500;10.418;2024-03-08T03:55:28;1.90;60.80
81630;DHT22;71039;49.500;10.418;2024-03-08T03:57:54;1.90;60.70
81630;DHT22;71039;49.500;10.418;2024-03-08T04:00:20;1.90;60.50
81630;DHT22;71039;49.500;10.418;2024-03-08T04:02:45;1.90;61.20
81630;DHT22;71039;49.500;10.418;2024-03-08T04:05:11;1.90;60.70
81630;DHT22;71039;49.500;10.418;2024-03-08T04:07:38;1.90;60.70
81630;DHT22;71039;49.500;10.418;2024-03-08T04:10:04;1.90;61.10
81630;DHT22;71039;49.500;10.418;2024-03-08T04:12:30;1.90;60.90
81630;DHT22;71039;49.500;10.418;2024-03-08T04:14:56;1.90;60.80
81630;DHT22;71039;49.500;10.418;2024-03-08T04:17:22;1.90;60.70
81630;DHT22;71039;49.500;10.418;2024-03-08T04:19:48;1.90;60.70
81630;DHT22;71039;49.500;10.418;2024-03-08T04:22:13;1.90;60.70
81630;DHT22;71039;49.500;10.418;2024-03-08T04:24:39;1.90;60.90
81630;DHT22;71039;49.500;10.418;2024-03-08T04:27:04;1.90;61.10
81630;DHT22;71039;49.500;10.418;2024-03-08T04:29:30;1.90;60.90
81630;DHT22;71039;49.500;10.418;2024-03-08T04:31:55;2.00;60.70
81630;DHT22;71039;49.500;10.418;2024-03-08T04:34:21;2.00;60.80
81630;DHT22;71039;49.500;10.418;2024-03-08T04:36:48;2.00;60.50
81630;DHT22;71039;49.500;10.418;2024-03-08T04:39:14;2.00;60.50
81630;DHT22;71039;49.500;10.418;2024-03-08T04:41:39;2.00;61.00
81630;DHT22;71039;49.500;10.418;2024-03-08T04:44:05;2.00;60.70
81630;DHT22;71039;49.500;10.418;2024-03-08T04:46:31;2.00;60.80
81630;DHT22;71039;49.500;10.418;2024-03-08T04:48:57;2.00;60.60
81630;DHT22;71039;49.500;10.418;2024-03-08T04:51:22;2.00;61.00
81630;DHT22;71039;49.500;10.418;2024-03-08T04:53:48;2.00;60.80
81630;DHT22;71039;49.500;10.418;2024-03-08T04:56:13;2.00;60.80
81630;DHT22;71039;49.500;10.418;2024-03-08T04:58:39;2.00;60.70
81630;DHT22;71039;49.500;10.418;2024-03-08T05:01:04;2.00;60.70
81630;DHT22;71039;49.500;10.418;2024-03-08T05:03:30;2.00;60.60
81630;DHT22;71039;49.500;10.418;2024-03-08T05:05:55;2.00;60.70
81630;DHT22;71039;49.500;10.418;2024-03-08T05:08:21;2.00;60.60
81630;DHT22;71039;49.500;10.418;2024-03-08T05:10:46;2.00;60.70
81630;DHT22;71039;49.500;10.418;2024-03-08T05:13:12;1.90;61.10
81630;DHT22;71039;49.500;10.418;2024-03-08T05:15:37;2.00;60.80
81630;DHT22;71039;49.500;10.418;2024-03-08T05:18:03;2.00;61.30
81630;DHT22;71039;49.500;10.418;2024-03-08T05:20:28;2.00;62.00
81630;DHT22;71039;49.500;10.418;2024-03-08T05:22:54;2.00;61.90
81630;DHT22;71039;49.500;10.418;2024-03-08T05:25:19;1.90;61.70
81630;DHT22;71039;49.500;10.418;2024-03-08T05:27:45;1.90;61.60
81630;DHT22;71039;49.500;10.418;2024-03-08T05:30:10;1.90;61.50
81630;DHT22;71039;49.500;10.418;2024-03-08T05:32:36;1.90;61.90
81630;DHT22;71039;49.500;10.418;2024-03-08T05:35:01;1.90;62.60
81630;DHT22;71039;49.500;10.418;2024-03-08T05:37:27;1.90;61.90
81630;DHT22;71039;49.500;10.418;2024-03-08T05:39:52;1.90;62.30
81630;DHT22;71039;49.500;10.418;2024-03-08T05:42:18;1.90;62.30
81630;DHT22;71039;49.500;10.418;2024-03-08T05:44:43;1.90;62.10
81630;DHT22;71039;49.500;10.418;2024-03-08T05:47:09;1.90;62.50
81630;DHT22;71039;49.500;10.418;2024-03-08T05:49:34;1.90;62.60
81630;DHT22;71039;49.500;10.418;2024-03-08T05:52:00;1.90;62.70
81630;DHT22;71039;49.500;10.418;2024-03-08T05:54:25;1.90;62.90
81630;DHT22;71039;49.500;10.418;2024-03-08T05:56:51;1.90;62.60
81630;DHT22;71039;49.500;10.418;2024-03-08T05:59:16;1.90;63.20
81630;DHT22;71039;49.500;10.418;2024-03-08T06:01:42;1.90;63.20
81630;DHT22;71039;49.500;10.418;2024-03-08T06:04:07;1.90;62.30
81630;DHT22;71039;49.500;10.418;2024-03-08T06:06:33;1.90;62.20
81630;DHT22;71039;49.500;10.418;2024-03-08T06:08:59;1.90;62.40
81630;DHT22;71039;49.500;10.418;2024-03-08T06:11:24;2.00;62.10
81630;DHT22;71039;49.500;10.418;2024-03-08T06:13:50;2.00;62.10
81630;DHT22;71039;49.500;10.418;2024-03-08T06:16:16;2.00;62.30
81630;DHT22;71039;49.500;10.418;2024-03-08T06:18:41;2.00;62.50
81630;DHT22;71039;49.500;10.418;2024-03-08T06:21:08;2.00;62.40
81630;DHT22;71039;49.500;10.418;2024-03-08T06:23:35;2.00;62.30
81630;DHT22;71039;49.500;10.418;2024-03-08T06:26:00;2.10;62.30
81630;DHT22;71039;49.500;10.418;2024-03-08T06:28:26;2.10;62.60
81630;DHT22;71039;49.500;10.418;2024-03-08T06:30:51;2.10;62.10
81630;DHT22;71039;49.500;10.418;2024-03-08T06:33:17;2.10;62.60
81630;DHT22;71039;49.500;10.418;2024-03-08T06:35:43;2.10;62.30
81630;DHT22;71039;49.500;10.418;2024-03-08T06:38:09;2.10;62.30
81630;DHT22;71039;49.500;10.418;2024-03-08T06:40:34;2.20;62.20
81630;DHT22;71039;49.500;10.418;2024-03-08T06:43:00;2.20;62.30
81630;DHT22;71039;49.500;10.418;2024-03-08T06:45:25;2.20;62.50
81630;DHT22;71039;49.500;10.418;2024-03-08T06:47:51;2.30;62.30
81630;DHT22;71039;49.500;10.418;2024-03-08T06:50:17;2.30;62.30
81630;DHT22;71039;49.500;10.418;2024-03-08T06:52:42;2.30;62.50
81630;DHT22;71039;49.500;10.418;2024-03-08T06:55:08;2.40;62.30
81630;DHT22;71039;49.500;10.418;2024-03-08T06:57:34;2.40;62.40
81630;DHT22;71039;49.500;10.418;2024-03-08T06:59:59;2.40;62.50
81630;DHT22;71039;49.500;10.418;2024-03-08T07:02:25;2.50;62.50
81630;DHT22;71039;49.500;10.418;2024-03-08T07:04:51;2.50;62.50
81630;DHT22;71039;49.500;10.418;2024-03-08T07:07:17;2.50;62.60
81630;DHT22;71039;49.500;10.418;2024-03-08T07:09:45;2.60;62.50
81630;DHT22;71039;49.500;10.418;2024-03-08T07:12:10;2.70;62.60
81630;DHT22;71039;49.500;10.418;2024-03-08T07:14:37;2.70;62.50
81630;DHT22;71039;49.500;10.418;2024-03-08T07:17:02;2.80;62.50
81630;DHT22;71039;49.500;10.418;2024-03-08T07:19:28;2.80;62.60
81630;DHT22;71039;49.500;10.418;2024-03-08T07:21:53;2.90;62.70
81630;DHT22;71039;49.500;10.418;2024-03-08T07:24:19;2.90;63.20
81630;DHT22;71039;49.500;10.418;2024-03-08T07:26:44;3.00;63.10
81630;DHT22;71039;49.500;10.418;2024-03-08T07:29:10;3.10;63.00
81630;DHT22;71039;49.500;10.418;2024-03-08T07:31:35;3.10;63.00
81630;DHT22;71039;49.500;10.418;2024-03-08T07:34:01;3.20;63.40
81630;DHT22;71039;49.500;10.418;2024-03-08T07:36:26;3.30;63.80
81630;DHT22;71039;49.500;10.418;2024-03-08T07:38:52;3.50;65.40
81630;DHT22;71039;49.500;10.418;2024-03-08T07:41:17;3.60;66.80
81630;DHT22;71039;49.500;10.418;2024-03-08T07:43:43;4.00;67.60
81630;DHT22;71039;49.500;10.418;2024-03-08T07:46:09;4.30;67.80
81630;DHT22;71039;49.500;10.418;2024-03-08T07:48:35;4.70;67.80
81630;DHT22;71039;49.500;10.418;2024-03-08T07:51:01;5.10;68.20
81630;DHT22;71039;49.500;10.418;2024-03-08T07:53:26;5.50;66.40
81630;DHT22;71039;49.500;10.418;2024-03-08T07:55:52;5.90;65.70
81630;DHT22;71039;49.500;10.418;2024-03-08T07:58:17;6.40;66.60
81630;DHT22;71039;49.500;10.418;2024-03-08T08:00:43;6.70;64.10
81630;DHT22;71039;49.500;10.418;2024-03-08T08:03:09;7.10;63.80
81630;DHT22;71039;49.500;10.418;2024-03-08T08:05:34;7.50;61.20
81630;DHT22;71039;49.500;10.418;2024-03-08T08:08:00;7.80;62.50
81630;DHT22;71039;49.500;10.418;2024-03-08T08:10:26;8.00;62.00
81630;DHT22;71039;49.500;10.418;2024-03-08T08:12:51;8.30;58.50
81630;DHT22;71039;49.500;10.418;2024-03-08T08:15:17;8.60;60.20
81630;DHT22;71039;49.500;10.418;2024-03-08T08:17:43;8.80;59.50
81630;DHT22;71039;49.500;10.418;2024-03-08T08:20:12;9.00;58.30
81630;DHT22;71039;49.500;10.418;2024-03-08T08:22:39;9.20;58.20
81630;DHT22;71039;49.500;10.418;2024-03-08T08:25:04;9.40;57.40
81630;DHT22;71039;49.500;10.418;2024-03-08T08:27:30;9.60;56.80
81630;DHT22;71039;49.500;10.418;2024-03-08T08:29:55;9.70;56.70
81630;DHT22;71039;49.500;10.418;2024-03-08T08:32:21;10.00;55.90
81630;DHT22;71039;49.500;10.418;2024-03-08T08:34:47;10.00;56.30
81630;DHT22;71039;49.500;10.418;2024-03-08T08:37:12;10.20;56.00
81630;DHT22;71039;49.500;10.418;2024-03-08T08:39:38;10.30;54.90
81630;DHT22;71039;49.500;10.418;2024-03-08T08:42:04;10.40;56.10
81630;DHT22;71039;49.500;10.418;2024-03-08T08:44:29;10.60;55.10
81630;DHT22;71039;49.500;10.418;2024-03-08T08:46:55;10.70;53.90
81630;DHT22;71039;49.500;10.418;2024-03-08T08:49:20;10.90;54.80
81630;DHT22;71039;49.500;10.418;2024-03-08T08:51:49;11.00;54.80
81630;DHT22;71039;49.500;10.418;2024-03-08T08:54:15;11.00;54.70
81630;DHT22;71039;49.500;10.418;2024-03-08T08:56:41;11.10;53.30
81630;DHT22;71039;49.500;10.418;2024-03-08T08:59:06;11.10;54.30
81630;DHT22;71039;49.500;10.418;2024-03-08T09:01:32;11.20;53.80
81630;DHT22;71039;49.500;10.418;2024-03-08T09:03:57;11.20;53.10
81630;DHT22;71039;49.500;10.418;2024-03-08T09:06:23;11.30;53.10
81630;DHT22;71039;49.500;10.418;2024-03-08T09:08:48;11.30;52.90
81630;DHT22;71039;49.500;10.418;2024-03-08T09:11:14;11.30;50.90
81630;DHT22;71039;49.500;10.418;2024-03-08T09:13:39;11.20;51.10
81630;DHT22;71039;49.500;10.418;2024-03-08T09:16:06;11.10;52.20
81630;DHT22;71039;49.500;10.418;2024-03-08T09:18:31;11.10;52.50
81630;DHT22;71039;49.500;10.418;2024-03-08T09:20:57;11.10;52.90
81630;DHT22;71039;49.500;10.418;2024-03-08T09:23:23;11.10;53.30
81630;DHT22;71039;49.500;10.418;2024-03-08T09:25:48;11.30;52.90
81630;DHT22;71039;49.500;10.418;2024-03-08T09:28:14;11.30;53.20
81630;DHT22;71039;49.500;10.418;2024-03-08T09:30:39;11.40;53.00
81630;DHT22;71039;49.500;10.418;2024-03-08T09:33:06;11.40;53.40
81630;DHT22;71039;49.500;10.418;2024-03-08T09:35:32;11.50;53.10
81630;DHT22;71039;49.500;10.418;2024-03-08T09:37:57;11.50;53.00
81630;DHT22;71039;49.500;10.418;2024-03-08T09:40:23;11.60;51.70
81630;DHT22;71039;49.500;10.418;2024-03-08T09:42:49;11.70;51.60
81630;DHT22;71039;49.500;10.418;2024-03-08T09:45:15;11.70;51.20
81630;DHT22;71039;49.500;10.418;2024-03-08T09:47:43;11.70;50.70
81630;DHT22;71039;49.500;10.418;2024-03-08T09:50:09;11.60;50.60
81630;DHT22;71039;49.500;10.418;2024-03-08T09:52:36;11.50;48.10
81630;DHT22;71039;49.500;10.418;2024-03-08T09:55:04;11.50;49.40
81630;DHT22;71039;49.500;10.418;2024-03-08T09:57:30;11.40;49.60
81630;DHT22;71039;49.500;10.418;2024-03-08T09:59:56;11.20;49.10
81630;DHT22;71039;49.500;10.418;2024-03-08T10:02:21;11.10;49.00
81630;DHT22;71039;49.500;10.418;2024-03-08T10:04:47;11.00;49.60
81630;DHT22;71039;49.500;10.418;2024-03-08T10:07:12;10.90;49.80
81630;DHT22;71039;49.500;10.418;2024-03-08T10:09:38;10.80;49.60
81630;DHT22;71039;49.500;10.418;2024-03-08T10:12:05;10.70;49.80
81630;DHT22;71039;49.500;10.418;2024-03-08T10:14:30;10.60;49.70
81630;DHT22;71039;49.500;10.418;2024-03-08T10:16:57;10.60;50.30
81630;DHT22;71039;49.500;10.418;2024-03-08T10:19:23;10.50;50.00
81630;DHT22;71039;49.500;10.418;2024-03-08T10:21:51;10.50;50.50
81630;DHT22;71039;49.500;10.418;2024-03-08T10:24:17;10.50;50.70
81630;DHT22;71039;49.500;10.418;2024-03-08T10:26:43;10.50;50.20
81630;DHT22;71039;49.500;10.418;2024-03-08T10:29:08;10.60;50.60
81630;DHT22;71039;49.500;10.418;2024-03-08T10:31:34;10.60;50.10
81630;DHT22;71039;49.500;10.418;2024-03-08T10:33:59;10.60;50.50
81630;DHT22;71039;49.500;10.418;2024-03-08T10:36:25;10.70;50.40
81630;DHT22;71039;49.500;10.418;2024-03-08T10:38:52;10.70;49.50
81630;DHT22;71039;49.500;10.418;2024-03-08T10:41:18;10.80;50.00
81630;DHT22;71039;49.500;10.418;2024-03-08T10:46:35;10.90;49.10
81630;DHT22;71039;49.500;10.418;2024-03-08T10:49:11;10.90;49.20
81630;DHT22;71039;49.500;10.418;2024-03-08T10:51:38;10.90;49.40
81630;DHT22;71039;49.500;10.418;2024-03-08T10:54:06;11.00;49.70
81630;DHT22;71039;49.500;10.418;2024-03-08T10:56:31;11.00;48.70
81630;DHT22;71039;49.500;10.418;2024-03-08T10:58:57;11.00;48.80
81630;DHT22;71039;49.500;10.418;2024-03-08T11:01:22;11.00;49.40
81630;DHT22;71039;49.500;10.418;2024-03-08T11:03:48;11.00;49.50
81630;DHT22;71039;49.500;10.418;2024-03-08T11:06:18;11.10;49.30
81630;DHT22;71039;49.500;10.418;2024-03-08T11:08:45;11.10;48.80
81630;DHT22;71039;49.500;10.418;2024-03-08T11:11:24;11.20;49.60
81630;DHT22;71039;49.500;10.418;2024-03-08T11:13:49;11.20;48.50
81630;DHT22;71039;49.500;10.418;2024-03-08T11:19:05;11.40;48.00
81630;DHT22;71039;49.500;10.418;2024-03-08T11:21:31;11.40;48.90
81630;DHT22;71039;49.500;10.418;2024-03-08T11:24:00;11.50;49.20
81630;DHT22;71039;49.500;10.418;2024-03-08T11:26:27;11.50;48.70
81630;DHT22;71039;49.500;10.418;2024-03-08T11:28:52;11.60;48.30
81630;DHT22;71039;49.500;10.418;2024-03-08T11:33:47;11.70;47.20
81630;DHT22;71039;49.500;10.418;2024-03-08T11:36:24;11.70;48.00
81630;DHT22;71039;49.500;10.418;2024-03-08T11:38:53;11.80;47.90
81630;DHT22;71039;49.500;10.418;2024-03-08T11:41:20;11.80;47.20
81630;DHT22;71039;49.500;10.418;2024-03-08T11:43:46;11.90;47.70
81630;DHT22;71039;49.500;10.418;2024-03-08T11:46:15;11.90;48.00
81630;DHT22;71039;49.500;10.418;2024-03-08T11:48:42;12.00;47.30
81630;DHT22;71039;49.500;10.418;2024-03-08T11:51:11;12.00;48.10
81630;DHT22;71039;49.500;10.418;2024-03-08T11:53:38;12.10;48.20
81630;DHT22;71039;49.500;10.418;2024-03-08T11:56:11;12.20;48.00
81630;DHT22;71039;49.500;10.418;2024-03-08T11:58:37;12.20;47.50
81630;DHT22;71039;49.500;10.418;2024-03-08T12:01:06;12.30;47.70
81630;DHT22;71039;49.500;10.418;2024-03-08T12:03:32;12.30;47.80
81630;DHT22;71039;49.500;10.418;2024-03-08T12:05:57;12.40;46.50
81630;DHT22;71039;49.500;10.418;2024-03-08T12:08:23;12.40;46.50
81630;DHT22;71039;49.500;10.418;2024-03-08T12:10:49;12.50;46.50
81630;DHT22;71039;49.500;10.418;2024-03-08T12:13:16;12.50;46.10
81630;DHT22;71039;49.500;10.418;2024-03-08T12:15:42;12.50;46.20
81630;DHT22;71039;49.500;10.418;2024-03-08T12:18:07;12.50;46.80
81630;DHT22;71039;49.500;10.418;2024-03-08T12:20:33;12.60;46.90
81630;DHT22;71039;49.500;10.418;2024-03-08T12:22:59;12.70;47.20
81630;DHT22;71039;49.500;10.418;2024-03-08T12:25:30;12.70;47.40
81630;DHT22;71039;49.500;10.418;2024-03-08T12:27:56;12.80;47.20
81630;DHT22;71039;49.500;10.418;2024-03-08T12:30:26;12.90;47.30
81630;DHT22;71039;49.500;10.418;2024-03-08T12:32:56;13.00;47.30
81630;DHT22;71039;49.500;10.418;2024-03-08T12:35:23;13.10;47.20
81630;DHT22;71039;49.500;10.418;2024-03-08T12:37:50;13.10;45.70
81630;DHT22;71039;49.500;10.418;2024-03-08T12:40:16;13.30;45.40
81630;DHT22;71039;49.500;10.418;2024-03-08T12:42:43;13.30;45.50
81630;DHT22;71039;49.500;10.418;2024-03-08T12:45:09;13.30;45.50
81630;DHT22;71039;49.500;10.418;2024-03-08T12:47:34;13.40;45.90
81630;DHT22;71039;49.500;10.418;2024-03-08T12:50:00;13.50;45.30
81630;DHT22;71039;49.500;10.418;2024-03-08T12:52:25;13.50;44.10
81630;DHT22;71039;49.500;10.418;2024-03-08T12:54:51;13.50;43.90
81630;DHT22;71039;49.500;10.418;2024-03-08T12:57:16;13.50;43.20
81630;DHT22;71039;49.500;10.418;2024-03-08T12:59:42;13.50;44.70
81630;DHT22;71039;49.500;10.418;2024-03-08T13:02:07;13.60;44.70
81630;DHT22;71039;49.500;10.418;2024-03-08T13:04:33;13.60;43.70
81630;DHT22;71039;49.500;10.418;2024-03-08T13:06:58;13.70;43.90
81630;DHT22;71039;49.500;10.418;2024-03-08T13:09:24;13.70;43.90
81630;DHT22;71039;49.500;10.418;2024-03-08T13:11:49;13.80;44.10
81630;DHT22;71039;49.500;10.418;2024-03-08T13:14:15;13.90;44.00
81630;DHT22;71039;49.500;10.418;2024-03-08T13:16:40;13.90;42.70
81630;DHT22;71039;49.500;10.418;2024-03-08T13:19:06;13.90;43.90
81630;DHT22;71039;49.500;10.418;2024-03-08T13:21:31;13.90;43.40
81630;DHT22;71039;49.500;10.418;2024-03-08T13:23:57;13.90;43.60
81630;DHT22;71039;49.500;10.418;2024-03-08T13:26:22;14.00;43.30
81630;DHT22;71039;49.500;10.418;2024-03-08T13:28:48;14.00;43.20
81630;DHT22;71039;49.500;10.418;2024-03-08T13:31:14;14.10;43.30
81630;DHT22;71039;49.500;10.418;2024-03-08T13:33:40;14.10;42.90
81630;DHT22;71039;49.500;10.418;2024-03-08T13:36:06;14.10;42.80
81630;DHT22;71039;49.500;10.418;2024-03-08T13:38:33;14.10;41.90
81630;DHT22;71039;49.500;10.418;2024-03-08T13:40:59;14.10;42.40
81630;DHT22;71039;49.500;10.418;2024-03-08T13:43:24;14.10;42.20
81630;DHT22;71039;49.500;10.418;2024-03-08T13:45:50;14.20;42.80
81630;DHT22;71039;49.500;10.418;2024-03-08T13:48:15;14.20;42.90
81630;DHT22;71039;49.500;10.418;2024-03-08T13:50:41;14.20;43.00
81630;DHT22;71039;49.500;10.418;2024-03-08T13:53:06;14.30;42.80
81630;DHT22;71039;49.500;10.418;2024-03-08T13:55:32;14.30;43.00
81630;DHT22;71039;49.500;10.418;2024-03-08T13:57:57;14.40;42.60
81630;DHT22;71039;49.500;10.418;2024-03-08T14:00:23;14.40;42.30
81630;DHT22;71039;49.500;10.418;2024-03-08T14:02:48;14.40;42.60
81630;DHT22;71039;49.500;10.418;2024-03-08T14:05:14;14.50;42.60
81630;DHT22;71039;49.500;10.418;2024-03-08T14:07:40;14.50;42.50
81630;DHT22;71039;49.500;10.418;2024-03-08T14:10:06;14.50;42.50
81630;DHT22;71039;49.500;10.418;2024-03-08T14:12:31;14.60;42.10
81630;DHT22;71039;49.500;10.418;2024-03-08T14:14:57;14.60;40.80
81630;DHT22;71039;49.500;10.418;2024-03-08T14:17:22;14.60;41.30
81630;DHT22;71039;49.500;10.418;2024-03-08T14:19:48;14.60;41.10
81630;DHT22;71039;49.500;10.418;2024-03-08T14:22:13;14.60;41.20
81630;DHT22;71039;49.500;10.418;2024-03-08T14:24:39;14.60;41.50
81630;DHT22;71039;49.500;10.418;2024-03-08T14:27:04;14.60;41.50
81630;DHT22;71039;49.500;10.418;2024-03-08T14:29:30;14.60;40.80
81630;DHT22;71039;49.500;10.418;2024-03-08T14:31:56;14.60;41.40
81630;DHT22;71039;49.500;10.418;2024-03-08T14:34:21;14.60;40.20
81630;DHT22;71039;49.500;10.418;2024-03-08T14:36:47;14.60;39.80
81630;DHT22;71039;49.500;10.418;2024-03-08T14:39:12;14.60;39.70
81630;DHT22;71039;49.500;10.418;2024-03-08T14:41:38;14.50;38.60
81630;DHT22;71039;49.500;10.418;2024-03-08T14:44:03;14.50;39.50
81630;DHT22;71039;49.500;10.418;2024-03-08T14:46:29;14.40;39.50
81630;DHT22;71039;49.500;10.418;2024-03-08T14:48:55;14.40;40.20
81630;DHT22;71039;49.500;10.418;2024-03-08T14:51:20;14.40;40.20
81630;DHT22;71039;49.500;10.418;2024-03-08T14:53:46;14.30;40.20
81630;DHT22;71039;49.500;10.418;2024-03-08T14:56:12;14.40;40.20
81630;DHT22;71039;49.500;10.418;2024-03-08T14:58:37;14.30;40.20
81630;DHT22;71039;49.500;10.418;2024-03-08T15:01:04;14.30;38.80
81630;DHT22;71039;49.500;10.418;2024-03-08T15:03:29;14.20;40.00
81630;DHT22;71039;49.500;10.418;2024-03-08T15:05:55;14.20;39.60
81630;DHT22;71039;49.500;10.418;2024-03-08T15:08:20;14.20;39.20
81630;DHT22;71039;49.500;10.418;2024-03-08T15:10:46;14.10;39.00
81630;DHT22;71039;49.500;10.418;2024-03-08T15:13:12;14.10;39.60
81630;DHT22;71039;49.500;10.418;2024-03-08T15:15:37;14.00;40.00
81630;DHT22;71039;49.500;10.418;2024-03-08T15:18:03;14.00;39.30
81630;DHT22;71039;49.500;10.418;2024-03-08T15:20:29;13.90;39.60
81630;DHT22;71039;49.500;10.418;2024-03-08T15:22:54;13.90;39.00
81630;DHT22;71039;49.500;10.418;2024-03-08T15:25:21;13.90;39.40
81630;DHT22;71039;49.500;10.418;2024-03-08T15:27:47;13.80;39.90